Data for 04/22/2013

Time Sea-Level Adjusted Pressure Absolute Pressure Temperature Relative Humidity Dew Point   
(mb) (inHg) (mb) (inHg) (C) (F) (%) (C) (F)
00:05 1021 30.15 850 25.1 -5 23 75 -8.8 16.1
00:10 1021 30.15 850 25.1 -5 22.9 75 -8.8 16.2
00:15 1021 30.15 850 25.1 -5.1 22.8 75 -8.8 16.2
00:20 1021 30.15 850 25.1 -5.2 22.6 76 -8.8 16.2
00:25 1021 30.15 850 25.1 -5.3 22.5 74 -9.2 15.5
00:30 1021 30.15 850 25.1 -5.3 22.4 75 -9.1 15.6
00:35 1021 30.15 850 25.1 -5.4 22.3 74 -9.3 15.2
00:40 1021 30.15 850 25.1 -5.4 22.3 74 -9.3 15.2
00:45 1021 30.15 850 25.1 -5.4 22.2 73 -9.5 15
00:50 1021 30.15 850 25.1 -5.5 22.1 74 -9.4 15.1
00:55 1021 30.15 850 25.1 -5.6 22 75 -9.3 15.3
01:00 1021 30.15 850 25.1 -5.6 21.8 76 -9.2 15.4
01:05 1021 30.15 850 25.1 -5.7 21.7 77 -9.2 15.4
01:10 1021 30.15 850 25.1 -5.8 21.6 77 -9.2 15.4
01:15 1021 30.15 850 25.1 -5.8 21.6 77 -9.2 15.5
01:20 1021 30.15 850 25.1 -5.8 21.6 77 -9.2 15.5
01:25 1021 30.15 850 25.1 -5.8 21.5 77 -9.2 15.4
01:30 1021 30.15 850 25.1 -5.8 21.5 77 -9.3 15.2
01:35 1021 30.15 850 25.1 -5.8 21.5 76 -9.5 14.9
01:40 1021 30.15 851 25.13 -5.8 21.5 75 -9.5 14.8
01:45 1021 30.15 851 25.13 -5.8 21.5 75 -9.6 14.7
01:50 1021 30.15 851 25.13 -5.8 21.5 74 -9.8 14.4
01:55 1021 30.15 851 25.13 -5.7 21.8 70 -10.3 13.5
02:00 1021 30.15 851 25.13 -5.4 22.3 69 -10.2 13.6
02:05 1021 30.15 851 25.13 -5.3 22.4 69 -10.2 13.7
02:10 1021 30.15 851 25.13 -5.4 22.3 79 -8.4 16.8
02:15 1021 30.15 851 25.13 -5.7 21.8 84 -7.9 17.8
02:20 1021 30.15 851 25.13 -5.8 21.5 86 -7.8 18
02:25 1021 30.15 851 25.13 -6 21.2 87 -7.8 18
02:30 1022 30.18 851 25.13 -6.1 21 89 -7.7 18.2
02:35 1022 30.18 851 25.13 -6.2 20.8 91 -7.5 18.5
02:40 1022 30.18 851 25.13 -6.1 21.1 90 -7.5 18.5
02:45 1022 30.18 851 25.13 -6 21.2 88 -7.7 18.1
02:50 1022 30.18 851 25.13 -5.9 21.3 86 -7.9 17.8
02:55 1022 30.18 851 25.13 -5.9 21.3 85 -8 17.5
03:00 1022 30.18 851 25.13 -5.9 21.3 83 -8.4 16.8
03:05 1022 30.18 851 25.13 -5.8 21.5 80 -8.7 16.3
03:10 1022 30.18 851 25.13 -5.7 21.8 72 -10 14.1
03:15 1022 30.18 851 25.13 -5.5 22 69 -10.3 13.5
03:20 1022 30.18 851 25.13 -5.5 22.1 71 -10 14
03:25 1022 30.18 851 25.13 -5.6 21.9 72 -9.8 14.3
03:30 1022 30.18 851 25.13 -5.7 21.8 72 -9.9 14.2
03:35 1022 30.18 851 25.13 -5.7 21.8 74 -9.7 14.6
03:40 1022 30.18 851 25.13 -5.7 21.7 75 -9.5 14.9
03:45 1022 30.18 851 25.13 -5.8 21.6 75 -9.5 14.8
03:50 1022 30.18 852 25.16 -5.8 21.6 76 -9.3 15.2
03:55 1022 30.18 852 25.16 -5.8 21.5 77 -9.2 15.5
04:00 1022 30.18 852 25.16 -5.9 21.4 78 -9.1 15.6
04:05 1022 30.18 852 25.16 -5.9 21.4 77 -9.3 15.3
04:10 1022 30.18 852 25.16 -5.9 21.4 78 -9.2 15.4
04:15 1022 30.18 852 25.16 -6 21.3 78 -9.2 15.4
04:20 1023 30.21 852 25.16 -6 21.2 79 -9.1 15.5
04:25 1023 30.21 852 25.16 -6 21.1 78 -9.2 15.4
04:30 1023 30.21 852 25.16 -6.1 21.1 79 -9.2 15.5
04:35 1023 30.21 852 25.16 -6 21.1 78 -9.3 15.2
04:40 1023 30.21 852 25.16 -6.1 21.1 78 -9.3 15.3
04:45 1023 30.21 852 25.16 -6 21.1 78 -9.3 15.2
04:50 1023 30.21 852 25.16 -6 21.2 77 -9.5 14.9
04:55 1023 30.21 852 25.16 -5.9 21.4 74 -9.9 14.2
05:00 1023 30.21 852 25.16 -5.7 21.7 71 -10.1 13.8
05:05 1023 30.21 852 25.16 -5.7 21.7 72 -9.9 14.1
05:10 1023 30.21 852 25.16 -5.7 21.7 75 -9.4 15
05:15 1023 30.21 852 25.16 -5.9 21.5 77 -9.3 15.2
05:20 1023 30.21 852 25.16 -6 21.2 79 -9 15.8
05:25 1023 30.21 852 25.16 -6 21.1 78 -9.3 15.2
05:30 1023 30.21 852 25.16 -5.8 21.5 70 -10.4 13.2
05:35 1023 30.21 852 25.16 -5.7 21.7 70 -10.3 13.5
05:40 1023 30.21 852 25.16 -5.7 21.7 74 -9.6 14.7
05:45 1023 30.21 853 25.19 -5.8 21.5 75 -9.5 14.9
05:50 1023 30.21 853 25.19 -5.8 21.5 72 -10 13.9
05:55 1024 30.24 853 25.19 -5.8 21.6 71 -10.2 13.7
06:00 1024 30.24 853 25.19 -5.8 21.6 72 -10.1 13.8
06:05 1024 30.24 853 25.19 -5.7 21.7 69 -10.5 13
06:10 1024 30.24 853 25.19 -5.7 21.7 70 -10.4 13.3
06:15 1024 30.24 853 25.19 -5.7 21.8 69 -10.5 13
06:20 1024 30.24 853 25.19 -5.6 21.8 68 -10.6 13
06:25 1024 30.24 853 25.19 -5.7 21.7 69 -10.5 13
06:30 1024 30.24 853 25.19 -5.7 21.7 70 -10.4 13.2
06:35 1024 30.24 853 25.19 -5.7 21.8 68 -10.7 12.7
06:40 1024 30.24 853 25.19 -5.6 22 69 -10.3 13.4
06:45 1024 30.24 854 25.22 -5.6 22 69 -10.4 13.3
06:50 1024 30.24 853 25.19 -5.6 22 71 -10.1 13.9
06:55 1024 30.24 854 25.22 -5.7 21.7 72 -10 14.1
07:00 1024 30.24 854 25.22 -5.7 21.8 73 -9.7 14.5
07:05 1024 30.24 854 25.22 -5.6 21.8 74 -9.5 14.8
07:10 1025 30.27 854 25.22 -5.7 21.8 75 -9.4 15.1
07:15 1025 30.27 854 25.22 -5.8 21.6 76 -9.3 15.2
07:20 1025 30.27 854 25.22 -5.9 21.4 78 -9.1 15.6
07:25 1025 30.27 854 25.22 -5.8 21.6 76 -9.3 15.3
07:30 1025 30.27 854 25.22 -5.8 21.6 76 -9.3 15.2
07:35 1025 30.27 854 25.22 -5.8 21.6 76 -9.4 15.1
07:40 1025 30.27 854 25.22 -5.6 21.9 75 -9.3 15.3
07:45 1025 30.27 854 25.22 -5.6 21.9 75 -9.4 15.1
07:50 1025 30.27 854 25.22 -5.6 21.9 75 -9.3 15.3
07:55 1025 30.27 854 25.22 -5.4 22.2 73 -9.5 15
08:00 1025 30.27 854 25.22 -5.4 22.3 73 -9.5 14.9
08:05 1025 30.27 854 25.22 -5.2 22.7 71 -9.6 14.8
08:10 1025 30.27 854 25.22 -5 22.9 72 -9.4 15
08:15 1025 30.27 854 25.22 -5.2 22.7 71 -9.6 14.7
08:20 1025 30.27 855 25.25 -5.2 22.6 69 -10 14.1
08:25 1025 30.27 855 25.25 -5.1 22.8 70 -9.7 14.5
08:30 1025 30.27 855 25.25 -5.1 22.8 68 -10 13.9
08:35 1025 30.27 855 25.25 -5 23 67 -10.2 13.7
08:40 1025 30.27 855 25.25 -4.9 23.2 67 -10.1 13.9
08:45 1025 30.27 855 25.25 -4.7 23.6 66 -10.1 13.8
08:50 1025 30.27 855 25.25 -4.4 24.1 65 -10.1 13.9
08:55 1025 30.27 855 25.25 -4.6 23.7 64 -10.4 13.3
09:00 1026 30.3 855 25.25 -4.3 24.2 64 -10.2 13.6
09:05 1026 30.3 855 25.25 -4.1 24.6 63 -10.2 13.7
09:10 1026 30.3 855 25.25 -4.3 24.3 64 -10.1 13.9
09:15 1026 30.3 855 25.25 -4.5 23.9 67 -9.8 14.4
09:20 1026 30.3 855 25.25 -4.3 24.3 63 -10.3 13.5
09:25 1026 30.3 855 25.25 -3.8 25.1 60 -10.5 13
09:30 1026 30.3 855 25.25 -3.5 25.6 60 -10.2 13.6
09:35 1026 30.3 855 25.25 -3.5 25.8 58 -10.5 13
09:40 1026 30.3 855 25.25 -3.2 26.3 58 -10.3 13.5
09:45 1026 30.3 855 25.25 -2.6 27.3 58 -9.8 14.4
09:50 1026 30.3 855 25.25 -2.8 27 56 -10.4 13.3
09:55 1026 30.3 855 25.25 -3.5 25.8 63 -9.4 15
10:00 1026 30.3 855 25.25 -3.4 26 60 -10 14
10:05 1026 30.3 855 25.25 -2.6 27.2 59 -9.6 14.7
10:10 1026 30.3 855 25.25 -2.6 27.4 63 -8.7 16.4
10:15 1026 30.3 855 25.25 -2.8 26.9 59 -9.7 14.6
10:20 1026 30.3 855 25.25 -3.3 26 59 -10.2 13.7
10:25 1026 30.3 855 25.25 -3.2 26.2 57 -10.7 12.8
10:30 1026 30.3 855 25.25 -3.1 26.4 55 -11 12.2
10:35 1026 30.3 855 25.25 -3 26.6 57 -10.5 13.2
10:40 1026 30.3 855 25.25 -2.6 27.3 50 -11.6 11.2
10:45 1026 30.3 855 25.25 -2.8 26.9 54 -11 12.2
10:50 1026 30.3 855 25.25 -2.9 26.8 58 -10.1 13.8
10:55 1026 30.3 855 25.25 -2.7 27.1 57 -10.1 13.8
11:00 1026 30.3 855 25.25 -2.8 27 56 -10.5 13.1
11:05 1026 30.3 855 25.25 -2.3 27.9 53 -10.7 12.8
11:10 1026 30.3 855 25.25 -2.5 27.5 55 -10.3 13.4
11:15 1026 30.3 855 25.25 -2.6 27.3 56 -10.3 13.5
11:20 1026 30.3 855 25.25 -2.3 27.9 49 -11.6 11
11:25 1026 30.3 855 25.25 -2.4 27.6 48 -11.9 10.6
11:30 1026 30.3 855 25.25 -2.6 27.3 55 -10.6 13
11:35 1026 30.3 855 25.25 -2.1 28.2 50 -11.3 11.7
11:40 1026 30.3 855 25.25 -1.5 29.3 50 -10.7 12.8
11:45 1026 30.3 855 25.25 -2.1 28.2 48 -11.7 11
11:50 1026 30.3 855 25.25 -2 28.5 52 -10.6 13
11:55 1026 30.3 855 25.25 -1.6 29.1 48 -11.2 11.9
12:00 1026 30.3 855 25.25 -1.7 28.9 47 -11.7 11
12:05 1026 30.3 855 25.25 -1.7 29 49 -11.2 11.9
12:10 1026 30.3 855 25.25 -1.5 29.4 47 -11.4 11.5
12:15 1026 30.3 855 25.25 -1.7 28.9 46 -12 10.4
12:20 1026 30.3 855 25.25 -1.8 28.8 47 -11.6 11.2
12:25 1026 30.3 855 25.25 -1.5 29.4 45 -11.9 10.6
12:30 1026 30.3 855 25.25 -1.2 29.8 47 -11.2 11.9
12:35 1026 30.3 855 25.25 -0.9 30.3 41 -12.7 9.2
12:40 1026 30.3 855 25.25 -1.3 29.7 43 -12.4 9.6
12:45 1026 30.3 855 25.25 -1.1 30 46 -11.3 11.7
12:50 1026 30.3 855 25.25 -1.4 29.6 48 -11.1 12
12:55 1026 30.3 855 25.25 -1.1 30 43 -12.1 10.3
13:00 1026 30.3 855 25.25 -1.3 29.6 43 -12.4 9.6
13:05 1026 30.3 855 25.25 -0.9 30.4 42 -12.3 9.8
13:10 1026 30.3 855 25.25 -0.9 30.3 45 -11.5 11.3
13:15 1026 30.3 855 25.25 -1.1 30.1 44 -11.7 11
13:20 1026 30.3 855 25.25 -1.2 29.9 47 -11.2 11.8
13:25 1026 30.3 855 25.25 -0.9 30.3 44 -11.8 10.8
13:30 1026 30.3 855 25.25 -0.9 30.4 45 -11.3 11.7
13:35 1026 30.3 855 25.25 -1.1 30 42 -12.4 9.7
13:40 1026 30.3 855 25.25 -0.6 30.9 43 -11.6 11.1
13:45 1026 30.3 855 25.25 -0.8 30.6 44 -11.5 11.3
13:50 1026 30.3 855 25.25 -1 30.3 39 -13.2 8.3
13:55 1026 30.3 855 25.25 -0.8 30.6 39 -13 8.6
14:00 1026 30.3 855 25.25 -0.6 30.9 42 -12 10.3
14:05 1026 30.3 855 25.25 -0.7 30.7 40 -12.6 9.3
14:10 1026 30.3 855 25.25 -0.6 30.9 40 -12.5 9.4
14:10 1026 30.3 855 25.25 -0.6 30.9 40 -12.5 9.4
14:15 1026 30.3 855 25.25 -0.9 30.3 45 -11.6 11.2
14:20 1026 30.3 855 25.25 -1.1 30.1 43 -12.1 10.3
14:25 1026 30.3 855 25.25 -0.8 30.6 41 -12.4 9.6
14:30 1026 30.3 855 25.25 -0.2 31.6 40 -12.4 9.7
14:35 1026 30.3 855 25.25 -1 30.2 42 -12.4 9.7
14:40 1026 30.3 855 25.25 -1.1 30.1 43 -12.2 10
14:45 1026 30.3 855 25.25 -0.5 31.1 40 -12.6 9.4
14:50 1026 30.3 855 25.25 -0.8 30.5 40 -12.8 8.9
14:55 1026 30.3 855 25.25 -0.5 31 41 -12.3 9.9
15:00 1025 30.27 855 25.25 -0.8 30.6 40 -12.6 9.2
15:05 1025 30.27 855 25.25 -0.7 30.7 41 -12.5 9.4
15:10 1025 30.27 855 25.25 -0.5 31.1 40 -12.5 9.5
15:15 1025 30.27 855 25.25 0.1 32.1 39 -12.5 9.6
15:20 1025 30.27 855 25.25 -0.2 31.6 40 -12.4 9.7
15:25 1025 30.27 855 25.25 -0.6 31 41 -12.2 10
15:30 1025 30.27 855 25.25 -0.5 31 41 -12.3 9.8
15:35 1025 30.27 855 25.25 -0.6 30.9 54 -8.8 16.1
15:40 1026 30.3 855 25.25 -1.1 30.1 62 -7.4 18.7
15:45 1026 30.3 855 25.25 -1.4 29.4 61 -8 17.7
15:50 1025 30.27 855 25.25 -0.6 30.9 54 -8.9 16
15:55 1025 30.27 855 25.25 0.6 33.1 49 -9 15.8
16:00 1025 30.27 855 25.25 0.6 33.2 52 -8 17.5
16:05 1025 30.27 855 25.25 0 32.1 50 -9.3 15.2
16:10 1025 30.27 855 25.25 1.2 34.1 42 -10.3 13.5
16:15 1025 30.27 855 25.25 1.4 34.5 42 -10.3 13.4
16:20 1025 30.27 855 25.25 1.9 35.5 40 -10.2 13.6
16:25 1025 30.27 855 25.25 1.6 34.8 47 -8.6 16.6
16:30 1025 30.27 855 25.25 0.3 32.5 49 -9.3 15.3
16:35 1025 30.27 855 25.25 -0.3 31.5 50 -9.6 14.7
16:40 1025 30.27 855 25.25 -0.1 31.8 48 -9.8 14.3
16:45 1025 30.27 855 25.25 0.1 32.1 45 -10.5 13.1
16:50 1025 30.27 855 25.25 -0.3 31.4 46 -10.6 12.9
16:55 1025 30.27 855 25.25 -0.2 31.6 42 -11.6 11.1
17:00 1025 30.27 855 25.25 -0.6 30.9 43 -11.7 10.9
17:05 1025 30.27 855 25.25 -0.6 30.9 42 -11.9 10.5
17:10 1025 30.27 855 25.25 -0.4 31.3 42 -11.8 10.8
17:15 1025 30.27 855 25.25 -0 32 41 -11.7 10.9
17:20 1025 30.27 855 25.25 -0.1 31.9 43 -11.3 11.6
17:25 1025 30.27 855 25.25 -0.1 31.8 42 -11.7 11
17:30 1025 30.27 855 25.25 -0.6 31 43 -11.5 11.3
17:35 1025 30.27 855 25.25 -0.6 30.9 45 -11.1 12
17:40 1025 30.27 855 25.25 -0.7 30.7 44 -11.5 11.4
17:45 1026 30.3 855 25.25 -0.8 30.5 43 -11.9 10.6
17:50 1026 30.3 855 25.25 -1 30.2 43 -12.2 10
17:55 1026 30.3 855 25.25 -1 30.2 42 -12.3 9.8
18:00 1026 30.3 855 25.25 -1.1 30.1 42 -12.4 9.7
18:05 1026 30.3 855 25.25 -1 30.3 43 -12.1 10.3
18:10 1026 30.3 855 25.25 -1 30.1 43 -12.1 10.2
18:15 1026 30.3 855 25.25 -1.1 29.9 43 -12.1 10.2
18:20 1026 30.3 855 25.25 -1.2 29.8 43 -12.2 10.1
18:25 1026 30.3 855 25.25 -1.3 29.7 44 -12.1 10.1
18:30 1026 30.3 855 25.25 -1.3 29.6 43 -12.2 10
18:35 1026 30.3 855 25.25 -1.4 29.5 45 -11.9 10.5
18:40 1026 30.3 855 25.25 -1.6 29.1 45 -11.9 10.6
18:45 1026 30.3 855 25.25 -1.7 29 46 -11.7 10.9
18:50 1026 30.3 855 25.25 -1.7 29 47 -11.6 11.2
18:55 1026 30.3 855 25.25 -1.8 28.7 48 -11.4 11.4
19:00 1026 30.3 855 25.25 -1.9 28.5 48 -11.4 11.4
19:05 1026 30.3 855 25.25 -2 28.4 49 -11.2 11.8
19:10 1026 30.3 855 25.25 -2.1 28.2 50 -11.1 11.9
19:15 1026 30.3 855 25.25 -2.3 27.9 51 -11 12.2
19:20 1026 30.3 855 25.25 -2.4 27.6 51 -11.1 11.9
19:25 1026 30.3 855 25.25 -2.5 27.5 52 -11.1 12
19:30 1026 30.3 855 25.25 -2.7 27.2 52 -11.2 11.8
19:35 1026 30.3 855 25.25 -2.8 27 53 -11.2 11.9
19:40 1026 30.3 855 25.25 -2.9 26.8 53 -11.1 12
19:45 1026 30.3 855 25.25 -3.1 26.5 54 -11.1 12.1
19:50 1026 30.3 855 25.25 -3.2 26.2 55 -11 12.1
19:55 1026 30.3 855 25.25 -3.3 26.1 55 -11.1 12
20:00 1026 30.3 855 25.25 -3.3 26 55 -11.2 11.8
20:05 1026 30.3 855 25.25 -3.5 25.7 56 -11.1 12.1
20:10 1026 30.3 855 25.25 -3.6 25.4 57 -11.1 12.1
20:15 1026 30.3 855 25.25 -3.7 25.3 57 -11 12.3
20:20 1026 30.3 855 25.25 -3.8 25.2 58 -11 12.2
20:25 1026 30.3 855 25.25 -3.8 25.1 58 -10.9 12.3
20:30 1026 30.3 855 25.25 -3.9 25 58 -11 12.3
20:35 1026 30.3 855 25.25 -4 24.8 59 -10.9 12.3
20:40 1026 30.3 855 25.25 -4.1 24.6 59 -10.9 12.4
20:45 1026 30.3 855 25.25 -4.2 24.4 60 -10.9 12.3
20:50 1026 30.3 855 25.25 -4.3 24.3 60 -10.9 12.3
20:55 1026 30.3 855 25.25 -4.4 24.1 61 -10.9 12.4
21:00 1026 30.3 856 25.28 -4.5 24 62 -10.8 12.6
21:05 1026 30.3 856 25.28 -4.6 23.7 64 -10.4 13.2
21:10 1026 30.3 856 25.28 -4.8 23.3 65 -10.5 13.1
21:15 1026 30.3 855 25.25 -4.9 23.2 63 -10.8 12.5
21:20 1026 30.3 855 25.25 -4.9 23.1 64 -10.7 12.7
21:25 1026 30.3 855 25.25 -5 22.9 64 -10.8 12.5
21:30 1026 30.3 855 25.25 -5.2 22.7 65 -10.7 12.8
21:35 1026 30.3 855 25.25 -5.3 22.4 66 -10.7 12.7
21:40 1026 30.3 855 25.25 -5.4 22.3 66 -10.7 12.7
21:45 1026 30.3 855 25.25 -5.6 22 67 -10.8 12.6
21:50 1026 30.3 855 25.25 -5.6 22 67 -10.7 12.7
21:55 1026 30.3 855 25.25 -5.6 21.8 67 -10.8 12.6
22:00 1026 30.3 855 25.25 -5.7 21.7 68 -10.8 12.6
22:05 1026 30.3 855 25.25 -5.8 21.6 67 -10.9 12.4
22:10 1026 30.3 855 25.25 -5.9 21.4 68 -11 12.3
22:15 1026 30.3 855 25.25 -6 21.2 68 -11 12.2
22:20 1026 30.3 855 25.25 -6 21.2 67 -11.1 12
22:25 1026 30.3 855 25.25 -5.9 21.3 67 -11.1 12
22:30 1026 30.3 855 25.25 -6 21.3 67 -11.1 12.1
22:35 1026 30.3 855 25.25 -6 21.2 67 -11.2 11.9
22:40 1026 30.3 855 25.25 -6.1 21 67 -11.2 11.8
22:45 1026 30.3 855 25.25 -6.1 21 67 -11.2 11.8
22:50 1026 30.3 855 25.25 -6.1 21.1 67 -11.2 11.8
22:55 1026 30.3 855 25.25 -6.2 20.9 68 -11.2 11.9
23:00 1026 30.3 855 25.25 -6.4 20.6 69 -11.2 11.8
23:05 1026 30.3 855 25.25 -6.5 20.3 69 -11.2 11.8
23:10 1026 30.3 855 25.25 -6.6 20.1 69 -11.3 11.6
23:15 1026 30.3 855 25.25 -6.6 20.1 70 -11.2 11.8
23:20 1026 30.3 855 25.25 -6.7 20 70 -11.3 11.7
23:25 1026 30.3 855 25.25 -6.8 19.7 71 -11.3 11.7
23:30 1026 30.3 855 25.25 -7 19.5 71 -11.4 11.6
23:35 1026 30.3 855 25.25 -6.9 19.6 70 -11.6 11.2
23:40 1026 30.3 855 25.25 -6.9 19.6 70 -11.4 11.5
23:45 1026 30.3 855 25.25 -6.9 19.6 70 -11.5 11.4
23:50 1026 30.3 855 25.25 -7 19.4 71 -11.5 11.4
23:55 1026 30.3 855 25.25 -7 19.3 71 -11.5 11.4
24:00 1026 30.3 855 25.25 -7.2 19.1 71 -11.5 11.2